sensor_id;sensor_type;location;lat;lon;timestamp;temperature;humidity
74520;DHT22;63002;48.134;-1.948;2023-12-14T06:01:45;18.20;59.50
74520;DHT22;63002;48.134;-1.948;2023-12-14T06:04:11;18.20;59.60
74520;DHT22;63002;48.134;-1.948;2023-12-14T06:06:39;18.20;59.70
74520;DHT22;63002;48.134;-1.948;2023-12-14T06:09:05;18.20;59.70
74520;DHT22;63002;48.134;-1.948;2023-12-14T06:11:34;18.20;58.10
74520;DHT22;63002;48.134;-1.948;2023-12-14T06:13:59;18.40;59.20
74520;DHT22;63002;48.134;-1.948;2023-12-14T06:16:25;18.50;58.70
74520;DHT22;63002;48.134;-1.948;2023-12-14T06:18:51;18.60;58.30
74520;DHT22;63002;48.134;-1.948;2023-12-14T06:21:16;18.70;58.90
74520;DHT22;63002;48.134;-1.948;2023-12-14T06:23:42;18.90;59.00
74520;DHT22;63002;48.134;-1.948;2023-12-14T06:26:08;18.80;59.20
74520;DHT22;63002;48.134;-1.948;2023-12-14T06:28:34;18.70;59.50
74520;DHT22;63002;48.134;-1.948;2023-12-14T06:30:59;18.60;59.70
74520;DHT22;63002;48.134;-1.948;2023-12-14T06:33:26;18.60;59.80
74520;DHT22;63002;48.134;-1.948;2023-12-14T06:35:52;18.40;58.10
74520;DHT22;63002;48.134;-1.948;2023-12-14T06:38:18;18.30;58.30
74520;DHT22;63002;48.134;-1.948;2023-12-14T06:40:44;18.30;59.00
74520;DHT22;63002;48.134;-1.948;2023-12-14T06:43:10;18.30;59.10
74520;DHT22;63002;48.134;-1.948;2023-12-14T06:45:39;18.40;59.20
74520;DHT22;63002;48.134;-1.948;2023-12-14T06:48:05;18.40;59.30
74520;DHT22;63002;48.134;-1.948;2023-12-14T06:50:31;18.40;59.40
74520;DHT22;63002;48.134;-1.948;2023-12-14T06:52:56;18.40;59.50
74520;DHT22;63002;48.134;-1.948;2023-12-14T06:55:22;18.40;59.60
74520;DHT22;63002;48.134;-1.948;2023-12-14T06:57:48;18.40;59.70
74520;DHT22;63002;48.134;-1.948;2023-12-14T07:00:14;18.40;59.70
74520;DHT22;63002;48.134;-1.948;2023-12-14T07:02:40;18.40;59.90
74520;DHT22;63002;48.134;-1.948;2023-12-14T07:05:06;18.40;59.90
74520;DHT22;63002;48.134;-1.948;2023-12-14T07:07:31;18.50;59.90
74520;DHT22;63002;48.134;-1.948;2023-12-14T07:09:57;18.50;59.90
74520;DHT22;63002;48.134;-1.948;2023-12-14T07:12:23;18.50;59.90
74520;DHT22;63002;48.134;-1.948;2023-12-14T07:14:48;18.50;60.00
74520;DHT22;63002;48.134;-1.948;2023-12-14T07:17:14;18.50;60.00
74520;DHT22;63002;48.134;-1.948;2023-12-14T07:19:39;18.50;60.00
74520;DHT22;63002;48.134;-1.948;2023-12-14T07:22:05;18.50;60.00
74520;DHT22;63002;48.134;-1.948;2023-12-14T07:24:31;18.50;60.10
74520;DHT22;63002;48.134;-1.948;2023-12-14T07:26:57;18.50;60.10
74520;DHT22;63002;48.134;-1.948;2023-12-14T07:29:22;18.50;60.00
74520;DHT22;63002;48.134;-1.948;2023-12-14T07:31:48;18.50;60.10
74520;DHT22;63002;48.134;-1.948;2023-12-14T07:34:14;18.40;60.20
74520;DHT22;63002;48.134;-1.948;2023-12-14T07:36:39;18.40;60.10
74520;DHT22;63002;48.134;-1.948;2023-12-14T07:39:05;18.50;60.10
74520;DHT22;63002;48.134;-1.948;2023-12-14T07:41:31;18.50;60.10
74520;DHT22;63002;48.134;-1.948;2023-12-14T07:43:57;18.50;60.10
74520;DHT22;63002;48.134;-1.948;2023-12-14T07:46:23;18.50;60.10
74520;DHT22;63002;48.134;-1.948;2023-12-14T07:48:49;18.50;60.10
74520;DHT22;63002;48.134;-1.948;2023-12-14T07:51:15;18.50;60.10
74520;DHT22;63002;48.134;-1.948;2023-12-14T07:53:41;18.50;60.10
74520;DHT22;63002;48.134;-1.948;2023-12-14T07:56:08;18.50;60.10
74520;DHT22;63002;48.134;-1.948;2023-12-14T07:58:34;18.50;60.10
74520;DHT22;63002;48.134;-1.948;2023-12-14T08:00:59;18.50;60.20
74520;DHT22;63002;48.134;-1.948;2023-12-14T08:03:25;18.40;60.20
74520;DHT22;63002;48.134;-1.948;2023-12-14T08:05:51;18.50;60.20
74520;DHT22;63002;48.134;-1.948;2023-12-14T08:08:16;18.40;60.20
74520;DHT22;63002;48.134;-1.948;2023-12-14T08:10:42;18.40;60.10
74520;DHT22;63002;48.134;-1.948;2023-12-14T08:13:08;18.50;60.20
74520;DHT22;63002;48.134;-1.948;2023-12-14T08:15:34;18.40;60.20
74520;DHT22;63002;48.134;-1.948;2023-12-14T08:18:00;18.40;60.20
74520;DHT22;63002;48.134;-1.948;2023-12-14T08:20:25;18.40;60.20
74520;DHT22;63002;48.134;-1.948;2023-12-14T08:22:51;18.40;60.20
74520;DHT22;63002;48.134;-1.948;2023-12-14T08:25:17;18.50;60.30
74520;DHT22;63002;48.134;-1.948;2023-12-14T08:27:43;18.40;60.20
74520;DHT22;63002;48.134;-1.948;2023-12-14T08:30:10;18.40;60.30
74520;DHT22;63002;48.134;-1.948;2023-12-14T08:32:36;18.40;60.20
74520;DHT22;63002;48.134;-1.948;2023-12-14T08:35:02;18.40;60.20
74520;DHT22;63002;48.134;-1.948;2023-12-14T08:37:28;18.40;60.20
74520;DHT22;63002;48.134;-1.948;2023-12-14T08:39:53;18.40;60.20
74520;DHT22;63002;48.134;-1.948;2023-12-14T08:42:19;18.40;60.20
74520;DHT22;63002;48.134;-1.948;2023-12-14T08:44:45;18.40;60.30
74520;DHT22;63002;48.134;-1.948;2023-12-14T08:47:11;18.40;60.20
74520;DHT22;63002;48.134;-1.948;2023-12-14T08:49:36;18.40;60.30
74520;DHT22;63002;48.134;-1.948;2023-12-14T08:52:02;18.40;60.30
74520;DHT22;63002;48.134;-1.948;2023-12-14T08:54:29;18.40;60.30
74520;DHT22;63002;48.134;-1.948;2023-12-14T08:56:55;18.40;60.20
74520;DHT22;63002;48.134;-1.948;2023-12-14T08:59:21;18.40;60.30
74520;DHT22;63002;48.134;-1.948;2023-12-14T09:01:46;18.40;60.20
74520;DHT22;63002;48.134;-1.948;2023-12-14T09:04:12;18.40;60.30
74520;DHT22;63002;48.134;-1.948;2023-12-14T09:06:38;18.40;60.30
74520;DHT22;63002;48.134;-1.948;2023-12-14T09:09:07;18.30;60.30
74520;DHT22;63002;48.134;-1.948;2023-12-14T09:11:33;18.40;60.30
74520;DHT22;63002;48.134;-1.948;2023-12-14T09:14:00;18.30;60.30
74520;DHT22;63002;48.134;-1.948;2023-12-14T09:16:26;18.40;60.20
74520;DHT22;63002;48.134;-1.948;2023-12-14T09:18:52;18.30;60.20
74520;DHT22;63002;48.134;-1.948;2023-12-14T09:21:18;18.30;60.30
74520;DHT22;63002;48.134;-1.948;2023-12-14T09:23:43;18.30;60.30
74520;DHT22;63002;48.134;-1.948;2023-12-14T09:26:09;18.40;60.30
74520;DHT22;63002;48.134;-1.948;2023-12-14T09:28:36;18.40;60.20
74520;DHT22;63002;48.134;-1.948;2023-12-14T09:31:02;18.40;60.30
74520;DHT22;63002;48.134;-1.948;2023-12-14T09:33:28;18.30;60.20
74520;DHT22;63002;48.134;-1.948;2023-12-14T09:35:55;18.30;60.30
74520;DHT22;63002;48.134;-1.948;2023-12-14T09:38:20;18.40;60.30
74520;DHT22;63002;48.134;-1.948;2023-12-14T09:40:46;18.30;60.30
74520;DHT22;63002;48.134;-1.948;2023-12-14T09:43:12;18.30;60.30
74520;DHT22;63002;48.134;-1.948;2023-12-14T09:45:41;18.30;60.30
74520;DHT22;63002;48.134;-1.948;2023-12-14T09:48:10;18.30;60.30
74520;DHT22;63002;48.134;-1.948;2023-12-14T09:50:39;18.30;60.30
74520;DHT22;63002;48.134;-1.948;2023-12-14T09:53:05;18.30;60.30
74520;DHT22;63002;48.134;-1.948;2023-12-14T09:55:31;18.40;60.20
74520;DHT22;63002;48.134;-1.948;2023-12-14T09:57:57;18.40;60.20
74520;DHT22;63002;48.134;-1.948;2023-12-14T10:00:38;18.30;60.30
74520;DHT22;63002;48.134;-1.948;2023-12-14T10:05:49;18.30;60.30
74520;DHT22;63002;48.134;-1.948;2023-12-14T10:08:16;18.30;60.30
74520;DHT22;63002;48.134;-1.948;2023-12-14T10:10:42;18.30;60.30
74520;DHT22;63002;48.134;-1.948;2023-12-14T10:13:09;18.30;60.30
74520;DHT22;63002;48.134;-1.948;2023-12-14T10:15:44;18.30;60.20
74520;DHT22;63002;48.134;-1.948;2023-12-14T10:18:10;18.30;60.20
74520;DHT22;63002;48.134;-1.948;2023-12-14T10:20:36;18.30;60.20
74520;DHT22;63002;48.134;-1.948;2023-12-14T10:23:05;18.30;60.30
74520;DHT22;63002;48.134;-1.948;2023-12-14T10:25:30;18.30;60.30
74520;DHT22;63002;48.134;-1.948;2023-12-14T10:27:57;18.30;60.30
74520;DHT22;63002;48.134;-1.948;2023-12-14T10:30:23;18.30;60.20
74520;DHT22;63002;48.134;-1.948;2023-12-14T10:32:49;18.30;60.20
74520;DHT22;63002;48.134;-1.948;2023-12-14T10:35:16;18.40;60.20
74520;DHT22;63002;48.134;-1.948;2023-12-14T10:37:43;18.30;60.20
74520;DHT22;63002;48.134;-1.948;2023-12-14T10:40:11;18.30;60.20
74520;DHT22;63002;48.134;-1.948;2023-12-14T10:42:43;18.30;60.20
74520;DHT22;63002;48.134;-1.948;2023-12-14T10:45:13;18.30;60.20
74520;DHT22;63002;48.134;-1.948;2023-12-14T10:47:46;18.30;60.20
74520;DHT22;63002;48.134;-1.948;2023-12-14T10:50:13;18.30;60.20
74520;DHT22;63002;48.134;-1.948;2023-12-14T10:52:41;18.30;60.20
74520;DHT22;63002;48.134;-1.948;2023-12-14T10:55:18;18.30;60.20
74520;DHT22;63002;48.134;-1.948;2023-12-14T10:57:46;18.30;60.10
74520;DHT22;63002;48.134;-1.948;2023-12-14T11:00:12;18.40;60.20
74520;DHT22;63002;48.134;-1.948;2023-12-14T11:02:41;18.30;60.20
74520;DHT22;63002;48.134;-1.948;2023-12-14T11:05:12;18.30;60.20
74520;DHT22;63002;48.134;-1.948;2023-12-14T11:10:13;18.30;60.20
74520;DHT22;63002;48.134;-1.948;2023-12-14T11:13:09;18.30;60.20
74520;DHT22;63002;48.134;-1.948;2023-12-14T11:15:37;18.30;60.30
74520;DHT22;63002;48.134;-1.948;2023-12-14T11:23:12;18.30;60.20
74520;DHT22;63002;48.134;-1.948;2023-12-14T11:25:40;18.30;60.20
74520;DHT22;63002;48.134;-1.948;2023-12-14T11:28:12;18.30;60.20
74520;DHT22;63002;48.134;-1.948;2023-12-14T11:30:38;18.30;60.30
74520;DHT22;63002;48.134;-1.948;2023-12-14T11:33:04;18.30;60.30
74520;DHT22;63002;48.134;-1.948;2023-12-14T11:35:30;18.30;60.30
74520;DHT22;63002;48.134;-1.948;2023-12-14T11:37:56;18.30;60.20
74520;DHT22;63002;48.134;-1.948;2023-12-14T11:40:24;18.30;60.30
74520;DHT22;63002;48.134;-1.948;2023-12-14T11:43:04;18.30;60.20
74520;DHT22;63002;48.134;-1.948;2023-12-14T11:45:37;18.30;60.20
74520;DHT22;63002;48.134;-1.948;2023-12-14T11:48:04;18.30;60.20
74520;DHT22;63002;48.134;-1.948;2023-12-14T11:50:34;18.30;60.20
74520;DHT22;63002;48.134;-1.948;2023-12-14T11:53:01;18.30;60.20
74520;DHT22;63002;48.134;-1.948;2023-12-14T11:55:33;18.30;60.20
74520;DHT22;63002;48.134;-1.948;2023-12-14T11:57:59;18.30;60.30
74520;DHT22;63002;48.134;-1.948;2023-12-14T12:00:26;18.30;60.30
74520;DHT22;63002;48.134;-1.948;2023-12-14T12:02:52;18.30;60.30
74520;DHT22;63002;48.134;-1.948;2023-12-14T12:05:18;18.30;60.20
74520;DHT22;63002;48.134;-1.948;2023-12-14T12:07:47;18.30;60.20
74520;DHT22;63002;48.134;-1.948;2023-12-14T12:10:13;18.30;60.30
74520;DHT22;63002;48.134;-1.948;2023-12-14T12:12:39;18.30;60.20
74520;DHT22;63002;48.134;-1.948;2023-12-14T12:15:05;18.30;60.20
74520;DHT22;63002;48.134;-1.948;2023-12-14T12:17:31;18.30;60.20
74520;DHT22;63002;48.134;-1.948;2023-12-14T12:20:06;18.30;60.20
74520;DHT22;63002;48.134;-1.948;2023-12-14T12:22:31;18.30;60.20
74520;DHT22;63002;48.134;-1.948;2023-12-14T12:24:57;18.30;60.20
74520;DHT22;63002;48.134;-1.948;2023-12-14T12:27:23;18.30;60.30
74520;DHT22;63002;48.134;-1.948;2023-12-14T12:29:49;18.30;60.20
74520;DHT22;63002;48.134;-1.948;2023-12-14T12:32:18;18.30;60.20
74520;DHT22;63002;48.134;-1.948;2023-12-14T12:34:44;18.30;60.10
74520;DHT22;63002;48.134;-1.948;2023-12-14T12:37:10;18.30;60.10
74520;DHT22;63002;48.134;-1.948;2023-12-14T12:39:35;18.30;60.10
74520;DHT22;63002;48.134;-1.948;2023-12-14T12:42:01;18.30;60.10
74520;DHT22;63002;48.134;-1.948;2023-12-14T12:44:27;18.30;60.10
74520;DHT22;63002;48.134;-1.948;2023-12-14T12:46:53;18.30;60.10
74520;DHT22;63002;48.134;-1.948;2023-12-14T12:49:22;18.30;60.10
74520;DHT22;63002;48.134;-1.948;2023-12-14T12:51:48;18.30;60.10
74520;DHT22;63002;48.134;-1.948;2023-12-14T12:54:14;18.30;60.10
74520;DHT22;63002;48.134;-1.948;2023-12-14T12:56:39;18.30;60.10
74520;DHT22;63002;48.134;-1.948;2023-12-14T12:59:05;18.30;60.10
74520;DHT22;63002;48.134;-1.948;2023-12-14T13:01:31;18.30;60.10
74520;DHT22;63002;48.134;-1.948;2023-12-14T13:03:56;18.30;60.10
74520;DHT22;63002;48.134;-1.948;2023-12-14T13:06:24;18.30;60.10
74520;DHT22;63002;48.134;-1.948;2023-12-14T13:08:51;18.30;60.10
74520;DHT22;63002;48.134;-1.948;2023-12-14T13:11:17;18.30;60.10
74520;DHT22;63002;48.134;-1.948;2023-12-14T13:13:42;18.30;60.10
74520;DHT22;63002;48.134;-1.948;2023-12-14T13:16:10;18.30;60.10
74520;DHT22;63002;48.134;-1.948;2023-12-14T13:18:36;18.30;60.00
74520;DHT22;63002;48.134;-1.948;2023-12-14T13:21:02;18.30;60.00
74520;DHT22;63002;48.134;-1.948;2023-12-14T13:23:27;18.30;60.10
74520;DHT22;63002;48.134;-1.948;2023-12-14T13:25:53;18.30;60.00
74520;DHT22;63002;48.134;-1.948;2023-12-14T13:28:19;18.30;60.00
74520;DHT22;63002;48.134;-1.948;2023-12-14T13:30:45;18.30;60.00
74520;DHT22;63002;48.134;-1.948;2023-12-14T13:33:11;18.30;60.10
74520;DHT22;63002;48.134;-1.948;2023-12-14T13:35:37;18.30;60.10
74520;DHT22;63002;48.134;-1.948;2023-12-14T13:38:03;18.30;60.10
74520;DHT22;63002;48.134;-1.948;2023-12-14T13:40:29;18.30;60.00
74520;DHT22;63002;48.134;-1.948;2023-12-14T13:42:54;18.30;60.00
74520;DHT22;63002;48.134;-1.948;2023-12-14T13:45:25;18.30;60.00
74520;DHT22;63002;48.134;-1.948;2023-12-14T13:47:51;18.30;60.00
74520;DHT22;63002;48.134;-1.948;2023-12-14T13:50:17;18.30;60.00
74520;DHT22;63002;48.134;-1.948;2023-12-14T13:52:43;18.30;60.00
74520;DHT22;63002;48.134;-1.948;2023-12-14T13:55:08;18.30;60.00
74520;DHT22;63002;48.134;-1.948;2023-12-14T13:57:34;18.30;60.00
74520;DHT22;63002;48.134;-1.948;2023-12-14T14:00:00;18.30;60.00
74520;DHT22;63002;48.134;-1.948;2023-12-14T14:02:26;18.30;60.00
74520;DHT22;63002;48.134;-1.948;2023-12-14T14:04:54;18.30;60.00
74520;DHT22;63002;48.134;-1.948;2023-12-14T14:07:19;18.30;60.00
74520;DHT22;63002;48.134;-1.948;2023-12-14T14:09:46;18.30;60.00
74520;DHT22;63002;48.134;-1.948;2023-12-14T14:12:12;18.30;60.00
74520;DHT22;63002;48.134;-1.948;2023-12-14T14:14:38;18.30;60.00
74520;DHT22;63002;48.134;-1.948;2023-12-14T14:17:04;18.30;60.00
74520;DHT22;63002;48.134;-1.948;2023-12-14T14:19:31;18.30;59.90
74520;DHT22;63002;48.134;-1.948;2023-12-14T14:21:57;18.30;60.00
74520;DHT22;63002;48.134;-1.948;2023-12-14T14:24:23;18.30;60.00
74520;DHT22;63002;48.134;-1.948;2023-12-14T14:26:48;18.30;60.00
74520;DHT22;63002;48.134;-1.948;2023-12-14T14:29:14;18.30;59.90
74520;DHT22;63002;48.134;-1.948;2023-12-14T14:31:40;18.30;60.00
74520;DHT22;63002;48.134;-1.948;2023-12-14T14:34:06;18.30;59.90
74520;DHT22;63002;48.134;-1.948;2023-12-14T14:36:31;18.30;59.90
74520;DHT22;63002;48.134;-1.948;2023-12-14T14:38:57;18.30;59.90
74520;DHT22;63002;48.134;-1.948;2023-12-14T14:41:23;18.30;59.90
74520;DHT22;63002;48.134;-1.948;2023-12-14T14:43:48;18.30;59.90
74520;DHT22;63002;48.134;-1.948;2023-12-14T14:46:14;18.30;59.90
74520;DHT22;63002;48.134;-1.948;2023-12-14T14:48:40;18.30;59.90
74520;DHT22;63002;48.134;-1.948;2023-12-14T14:51:05;18.30;59.90
74520;DHT22;63002;48.134;-1.948;2023-12-14T14:53:31;18.30;59.90
74520;DHT22;63002;48.134;-1.948;2023-12-14T14:55:57;18.30;59.90
74520;DHT22;63002;48.134;-1.948;2023-12-14T14:58:23;18.30;59.90
74520;DHT22;63002;48.134;-1.948;2023-12-14T15:00:48;18.30;59.90
74520;DHT22;63002;48.134;-1.948;2023-12-14T15:03:14;18.30;59.80
74520;DHT22;63002;48.134;-1.948;2023-12-14T15:05:40;18.30;59.90
74520;DHT22;63002;48.134;-1.948;2023-12-14T15:08:06;18.30;59.80
74520;DHT22;63002;48.134;-1.948;2023-12-14T15:10:33;18.30;59.90
74520;DHT22;63002;48.134;-1.948;2023-12-14T15:12:59;18.30;59.80
74520;DHT22;63002;48.134;-1.948;2023-12-14T15:15:24;18.30;59.90
74520;DHT22;63002;48.134;-1.948;2023-12-14T15:17:50;18.30;59.90
74520;DHT22;63002;48.134;-1.948;2023-12-14T15:20:16;18.30;59.80
74520;DHT22;63002;48.134;-1.948;2023-12-14T15:22:41;18.30;59.80
74520;DHT22;63002;48.134;-1.948;2023-12-14T15:25:07;18.30;59.80
74520;DHT22;63002;48.134;-1.948;2023-12-14T15:27:34;18.30;59.90
74520;DHT22;63002;48.134;-1.948;2023-12-14T15:30:00;18.30;59.90
74520;DHT22;63002;48.134;-1.948;2023-12-14T15:32:25;18.30;59.80
74520;DHT22;63002;48.134;-1.948;2023-12-14T15:34:51;18.30;59.80
74520;DHT22;63002;48.134;-1.948;2023-12-14T15:37:17;18.30;59.80
74520;DHT22;63002;48.134;-1.948;2023-12-14T15:39:43;18.30;59.80
74520;DHT22;63002;48.134;-1.948;2023-12-14T15:42:15;18.30;59.90
74520;DHT22;63002;48.134;-1.948;2023-12-14T15:44:41;18.30;59.80
74520;DHT22;63002;48.134;-1.948;2023-12-14T15:47:07;18.30;59.80
74520;DHT22;63002;48.134;-1.948;2023-12-14T15:49:33;18.30;59.90
74520;DHT22;63002;48.134;-1.948;2023-12-14T15:51:58;18.30;59.80
74520;DHT22;63002;48.134;-1.948;2023-12-14T15:54:24;18.30;59.80
74520;DHT22;63002;48.134;-1.948;2023-12-14T15:56:50;18.30;59.80
74520;DHT22;63002;48.134;-1.948;2023-12-14T15:59:15;18.30;59.80
74520;DHT22;63002;48.134;-1.948;2023-12-14T16:01:42;18.30;59.80
74520;DHT22;63002;48.134;-1.948;2023-12-14T16:04:09;18.30;59.80
74520;DHT22;63002;48.134;-1.948;2023-12-14T16:06:35;18.30;59.80
74520;DHT22;63002;48.134;-1.948;2023-12-14T16:09:01;18.30;59.80
74520;DHT22;63002;48.134;-1.948;2023-12-14T16:11:28;18.30;59.80
74520;DHT22;63002;48.134;-1.948;2023-12-14T16:13:54;18.30;59.70
74520;DHT22;63002;48.134;-1.948;2023-12-14T16:16:22;18.30;59.70
74520;DHT22;63002;48.134;-1.948;2023-12-14T16:18:48;18.30;59.70
74520;DHT22;63002;48.134;-1.948;2023-12-14T16:21:14;18.30;59.70
74520;DHT22;63002;48.134;-1.948;2023-12-14T16:23:40;18.30;59.70
74520;DHT22;63002;48.134;-1.948;2023-12-14T16:26:06;18.30;59.60
74520;DHT22;63002;48.134;-1.948;2023-12-14T16:28:33;18.30;59.60
74520;DHT22;63002;48.134;-1.948;2023-12-14T16:31:03;18.30;59.60
74520;DHT22;63002;48.134;-1.948;2023-12-14T16:33:30;18.30;59.70
74520;DHT22;63002;48.134;-1.948;2023-12-14T16:35:56;18.30;59.70
74520;DHT22;63002;48.134;-1.948;2023-12-14T16:38:22;18.30;59.60
74520;DHT22;63002;48.134;-1.948;2023-12-14T16:40:48;18.30;59.60
74520;DHT22;63002;48.134;-1.948;2023-12-14T16:43:14;18.30;59.60
74520;DHT22;63002;48.134;-1.948;2023-12-14T16:45:48;18.30;59.60
74520;DHT22;63002;48.134;-1.948;2023-12-14T16:48:19;18.30;59.60
74520;DHT22;63002;48.134;-1.948;2023-12-14T16:50:44;18.30;59.50
74520;DHT22;63002;48.134;-1.948;2023-12-14T16:53:11;18.30;59.60
74520;DHT22;63002;48.134;-1.948;2023-12-14T16:55:37;18.30;59.60
74520;DHT22;63002;48.134;-1.948;2023-12-14T16:58:03;18.30;59.50
74520;DHT22;63002;48.134;-1.948;2023-12-14T17:00:28;18.30;59.60
74520;DHT22;63002;48.134;-1.948;2023-12-14T17:02:54;18.30;59.50
74520;DHT22;63002;48.134;-1.948;2023-12-14T17:05:20;18.30;59.50
74520;DHT22;63002;48.134;-1.948;2023-12-14T17:07:45;18.30;59.50
74520;DHT22;63002;48.134;-1.948;2023-12-14T17:10:11;18.30;59.50
74520;DHT22;63002;48.134;-1.948;2023-12-14T17:12:37;18.30;59.50
74520;DHT22;63002;48.134;-1.948;2023-12-14T17:15:04;18.30;59.50
74520;DHT22;63002;48.134;-1.948;2023-12-14T17:17:31;18.30;59.50
74520;DHT22;63002;48.134;-1.948;2023-12-14T17:19:59;18.30;59.50
74520;DHT22;63002;48.134;-1.948;2023-12-14T17:22:25;18.30;59.50
74520;DHT22;63002;48.134;-1.948;2023-12-14T17:24:51;18.30;59.50
74520;DHT22;63002;48.134;-1.948;2023-12-14T17:27:16;18.40;59.50
74520;DHT22;63002;48.134;-1.948;2023-12-14T17:29:42;18.40;59.40
74520;DHT22;63002;48.134;-1.948;2023-12-14T17:32:08;18.40;59.40
74520;DHT22;63002;48.134;-1.948;2023-12-14T17:34:34;18.30;59.40
74520;DHT22;63002;48.134;-1.948;2023-12-14T17:37:00;18.30;59.40
74520;DHT22;63002;48.134;-1.948;2023-12-14T17:39:27;18.30;59.40
74520;DHT22;63002;48.134;-1.948;2023-12-14T17:41:53;18.40;59.40
74520;DHT22;63002;48.134;-1.948;2023-12-14T17:44:21;18.40;59.20
74520;DHT22;63002;48.134;-1.948;2023-12-14T17:46:48;18.40;59.30
74520;DHT22;63002;48.134;-1.948;2023-12-14T17:49:15;18.40;59.30
74520;DHT22;63002;48.134;-1.948;2023-12-14T17:51:40;18.40;59.40
74520;DHT22;63002;48.134;-1.948;2023-12-14T17:54:07;18.30;59.40
74520;DHT22;63002;48.134;-1.948;2023-12-14T17:56:33;18.30;59.40
74520;DHT22;63002;48.134;-1.948;2023-12-14T17:58:58;18.30;59.40
74520;DHT22;63002;48.134;-1.948;2023-12-14T18:01:24;18.00;55.60
74520;DHT22;63002;48.134;-1.948;2023-12-14T18:03:50;17.50;59.00
74520;DHT22;63002;48.134;-1.948;2023-12-14T18:06:16;17.80;59.30
74520;DHT22;63002;48.134;-1.948;2023-12-14T18:08:42;18.00;59.10
74520;DHT22;63002;48.134;-1.948;2023-12-14T18:11:08;18.10;59.20
74520;DHT22;63002;48.134;-1.948;2023-12-14T18:13:34;18.10;59.20
74520;DHT22;63002;48.134;-1.948;2023-12-14T18:16:00;18.10;59.20
74520;DHT22;63002;48.134;-1.948;2023-12-14T18:18:27;18.20;59.20
74520;DHT22;63002;48.134;-1.948;2023-12-14T18:20:53;18.20;59.20
74520;DHT22;63002;48.134;-1.948;2023-12-14T18:23:19;18.20;59.20
74520;DHT22;63002;48.134;-1.948;2023-12-14T18:25:45;18.20;59.20
74520;DHT22;63002;48.134;-1.948;2023-12-14T18:28:12;18.20;59.20
74520;DHT22;63002;48.134;-1.948;2023-12-14T18:30:38;18.30;59.20
74520;DHT22;63002;48.134;-1.948;2023-12-14T18:33:04;18.50;59.00
74520;DHT22;63002;48.134;-1.948;2023-12-14T18:35:30;18.50;58.90
74520;DHT22;63002;48.134;-1.948;2023-12-14T18:37:56;18.40;59.00
74520;DHT22;63002;48.134;-1.948;2023-12-14T18:40:23;18.40;59.10
74520;DHT22;63002;48.134;-1.948;2023-12-14T18:42:51;18.40;59.20
74520;DHT22;63002;48.134;-1.948;2023-12-14T18:45:17;18.40;59.20
74520;DHT22;63002;48.134;-1.948;2023-12-14T18:47:43;18.40;59.20
74520;DHT22;63002;48.134;-1.948;2023-12-14T18:50:09;18.40;59.30
74520;DHT22;63002;48.134;-1.948;2023-12-14T18:52:35;18.40;59.30
74520;DHT22;63002;48.134;-1.948;2023-12-14T18:55:01;18.40;59.40
74520;DHT22;63002;48.134;-1.948;2023-12-14T18:57:26;18.40;59.40
74520;DHT22;63002;48.134;-1.948;2023-12-14T18:59:52;18.40;59.40
74520;DHT22;63002;48.134;-1.948;2023-12-14T19:02:18;18.40;59.50
74520;DHT22;63002;48.134;-1.948;2023-12-14T19:04:44;18.50;59.50
74520;DHT22;63002;48.134;-1.948;2023-12-14T19:07:10;18.50;59.60
74520;DHT22;63002;48.134;-1.948;2023-12-14T19:09:36;18.50;59.60
74520;DHT22;63002;48.134;-1.948;2023-12-14T19:12:02;18.50;59.70
74520;DHT22;63002;48.134;-1.948;2023-12-14T19:14:28;18.50;59.80
74520;DHT22;63002;48.134;-1.948;2023-12-14T19:16:55;18.60;59.90
74520;DHT22;63002;48.134;-1.948;2023-12-14T19:19:21;18.60;60.10
74520;DHT22;63002;48.134;-1.948;2023-12-14T19:21:46;18.60;60.20
74520;DHT22;63002;48.134;-1.948;2023-12-14T19:24:13;18.00;56.80
74520;DHT22;63002;48.134;-1.948;2023-12-14T19:26:39;17.90;59.50
74520;DHT22;63002;48.134;-1.948;2023-12-14T19:29:04;18.10;60.30
74520;DHT22;63002;48.134;-1.948;2023-12-14T19:31:31;18.20;60.30
74520;DHT22;63002;48.134;-1.948;2023-12-14T19:33:57;18.20;60.30
74520;DHT22;63002;48.134;-1.948;2023-12-14T19:36:23;18.30;60.50
74520;DHT22;63002;48.134;-1.948;2023-12-14T19:38:48;18.30;60.60
74520;DHT22;63002;48.134;-1.948;2023-12-14T19:41:16;18.30;60.60
74520;DHT22;63002;48.134;-1.948;2023-12-14T19:43:41;18.40;60.70
74520;DHT22;63002;48.134;-1.948;2023-12-14T19:46:11;18.40;60.70
74520;DHT22;63002;48.134;-1.948;2023-12-14T19:48:38;18.40;60.70
74520;DHT22;63002;48.134;-1.948;2023-12-14T19:51:04;18.40;60.70
74520;DHT22;63002;48.134;-1.948;2023-12-14T19:53:29;18.40;60.80
74520;DHT22;63002;48.134;-1.948;2023-12-14T19:55:56;18.40;60.80
74520;DHT22;63002;48.134;-1.948;2023-12-14T19:58:22;18.40;60.80
74520;DHT22;63002;48.134;-1.948;2023-12-14T20:00:47;18.40;60.70
74520;DHT22;63002;48.134;-1.948;2023-12-14T20:03:13;18.40;60.80
74520;DHT22;63002;48.134;-1.948;2023-12-14T20:05:40;18.40;60.80
74520;DHT22;63002;48.134;-1.948;2023-12-14T20:08:12;18.40;60.90
74520;DHT22;63002;48.134;-1.948;2023-12-14T20:10:38;18.40;60.90
74520;DHT22;63002;48.134;-1.948;2023-12-14T20:13:03;18.60;60.80
74520;DHT22;63002;48.134;-1.948;2023-12-14T20:15:38;18.80;60.80
74520;DHT22;63002;48.134;-1.948;2023-12-14T20:18:05;18.90;61.10
74520;DHT22;63002;48.134;-1.948;2023-12-14T20:20:31;19.00;61.00
74520;DHT22;63002;48.134;-1.948;2023-12-14T20:23:01;19.10;61.60
74520;DHT22;63002;48.134;-1.948;2023-12-14T20:25:27;19.20;61.40
74520;DHT22;63002;48.134;-1.948;2023-12-14T20:27:55;19.30;61.50
74520;DHT22;63002;48.134;-1.948;2023-12-14T20:30:21;19.30;61.50
74520;DHT22;63002;48.134;-1.948;2023-12-14T20:32:48;19.30;61.30
74520;DHT22;63002;48.134;-1.948;2023-12-14T20:35:17;19.20;60.90
74520;DHT22;63002;48.134;-1.948;2023-12-14T20:37:43;19.20;61.30
74520;DHT22;63002;48.134;-1.948;2023-12-14T20:40:13;19.10;61.30
74520;DHT22;63002;48.134;-1.948;2023-12-14T20:42:40;19.00;61.50
74520;DHT22;63002;48.134;-1.948;2023-12-14T20:45:06;19.00;61.50
74520;DHT22;63002;48.134;-1.948;2023-12-14T20:47:32;19.00;61.50
74520;DHT22;63002;48.134;-1.948;2023-12-14T20:49:58;19.00;61.40
74520;DHT22;63002;48.134;-1.948;2023-12-14T20:52:24;19.00;61.40
74520;DHT22;63002;48.134;-1.948;2023-12-14T20:54:49;18.90;61.40
74520;DHT22;63002;48.134;-1.948;2023-12-14T20:57:15;18.90;61.40
74520;DHT22;63002;48.134;-1.948;2023-12-14T20:59:41;18.90;61.30
74520;DHT22;63002;48.134;-1.948;2023-12-14T21:02:07;18.90;61.30
74520;DHT22;63002;48.134;-1.948;2023-12-14T21:04:34;18.90;61.30
74520;DHT22;63002;48.134;-1.948;2023-12-14T21:07:00;18.90;61.20
74520;DHT22;63002;48.134;-1.948;2023-12-14T21:09:26;18.90;61.20
74520;DHT22;63002;48.134;-1.948;2023-12-14T21:11:51;18.90;61.20
74520;DHT22;63002;48.134;-1.948;2023-12-14T21:14:17;18.90;61.20
74520;DHT22;63002;48.134;-1.948;2023-12-14T21:16:43;18.90;61.10
74520;DHT22;63002;48.134;-1.948;2023-12-14T21:19:24;18.90;61.20
74520;DHT22;63002;48.134;-1.948;2023-12-14T21:21:50;18.90;61.10